Time;durP1;ratioP1;P1;durP2;ratioP2;P2;SDS_P1;SDS_P2;PMS_P1;PMS_P2;Temp;Humidity;BMP_temperature;BMP_pressure;BME280_temperature;BME280_humidity;BME280_pressure;Samples;Min_cycle;Max_cycle;Signal;HPM_P1;HPM_P2
2021/12/03 00:01:48;;;;;;;10.75;5.25;;;;;;;;;;6135422;23;20017;-88
2021/12/03 00:04:14;;;;;;;9.77;5.63;;;;;;;;;;6142526;23;20359;-89
2021/12/03 00:06:40;;;;;;;10.20;5.38;;;;;;;;;;6146591;23;20020;-89
2021/12/03 00:09:07;;;;;;;11.20;5.38;;;;;;;;;;6141289;23;20460;-89
2021/12/03 00:11:33;;;;;;;10.05;5.07;;;;;;;;;;6138552;23;20009;-89
2021/12/03 00:14:00;;;;;;;12.52;6.28;;;;;;;;;;6163868;23;20458;-88
2021/12/03 00:16:26;;;;;;;12.98;5.72;;;;;;;;;;6138640;23;20013;-89
2021/12/03 00:18:52;;;;;;;10.18;5.82;;;;;;;;;;6138088;23;20016;-89
2021/12/03 00:21:18;;;;;;;13.88;6.05;;;;;;;;;;6138746;23;20009;-89
2021/12/03 00:23:44;;;;;;;13.40;5.63;;;;;;;;;;6162118;23;20035;-89
2021/12/03 00:26:10;;;;;;;10.25;5.80;;;;;;;;;;6138475;23;20017;-89
2021/12/03 00:28:37;;;;;;;10.43;5.30;;;;;;;;;;6136472;23;20095;-89
2021/12/03 00:31:04;;;;;;;11.65;6.00;;;;;;;;;;6161951;23;20015;-89
2021/12/03 00:33:31;;;;;;;12.43;5.78;;;;;;;;;;6140888;23;20476;-89
2021/12/03 00:35:59;;;;;;;10.65;5.75;;;;;;;;;;6142253;23;20374;-90
2021/12/03 00:38:25;;;;;;;11.32;6.30;;;;;;;;;;6171249;23;20017;-89
2021/12/03 00:40:51;;;;;;;15.80;6.72;;;;;;;;;;6139262;23;20096;-89
2021/12/03 00:43:17;;;;;;;13.38;6.65;;;;;;;;;;6135832;23;20473;-89
2021/12/03 00:45:44;;;;;;;12.30;7.10;;;;;;;;;;6136297;23;20017;-89
2021/12/03 00:48:10;;;;;;;11.63;6.68;;;;;;;;;;6160938;23;20350;-89
2021/12/03 00:50:36;;;;;;;13.02;7.28;;;;;;;;;;6137110;23;20017;-90
2021/12/03 00:53:03;;;;;;;14.15;6.93;;;;;;;;;;6136782;23;20017;-89
2021/12/03 00:55:29;;;;;;;12.88;7.18;;;;;;;;;;6162096;23;20024;-89
2021/12/03 00:57:56;;;;;;;14.10;6.80;;;;;;;;;;6159611;23;20017;-88
2021/12/03 01:00:23;;;;;;;11.30;6.88;;;;;;;;;;6134047;23;20017;-89
2021/12/03 01:02:51;;;;;;;12.05;6.70;;;;;;;;;;6133352;23;20013;-89
2021/12/03 01:05:17;;;;;;;11.60;7.00;;;;;;;;;;6133543;23;20065;-88
2021/12/03 01:07:43;;;;;;;16.08;6.82;;;;;;;;;;6133135;23;20097;-89
2021/12/03 01:10:09;;;;;;;14.70;6.78;;;;;;;;;;6157615;23;20490;-89
2021/12/03 01:12:36;;;;;;;17.27;7.68;;;;;;;;;;6133700;23;20063;-89
2021/12/03 01:15:02;;;;;;;12.63;7.22;;;;;;;;;;6132736;23;20013;-88
2021/12/03 01:17:28;;;;;;;11.48;6.93;;;;;;;;;;6132607;23;20354;-89
2021/12/03 01:19:54;;;;;;;12.02;7.75;;;;;;;;;;6156358;23;20024;-88
2021/12/03 01:22:20;;;;;;;12.45;7.55;;;;;;;;;;6131115;23;20155;-89
2021/12/03 01:24:46;;;;;;;11.38;6.80;;;;;;;;;;6132189;23;20044;-89
2021/12/03 01:27:12;;;;;;;14.57;7.72;;;;;;;;;;6132684;23;20510;-89
2021/12/03 01:29:38;;;;;;;13.27;7.93;;;;;;;;;;6132575;23;20047;-88
2021/12/03 01:32:04;;;;;;;13.93;8.27;;;;;;;;;;6134071;23;20017;-88
2021/12/03 01:34:30;;;;;;;13.02;7.15;;;;;;;;;;6157711;23;20044;-88
2021/12/03 01:36:56;;;;;;;16.00;8.45;;;;;;;;;;6133070;23;20027;-88
2021/12/03 01:39:22;;;;;;;16.52;8.80;;;;;;;;;;6134324;23;20013;-88
2021/12/03 01:41:48;;;;;;;16.65;9.07;;;;;;;;;;6135142;23;20017;-89
2021/12/03 01:44:15;;;;;;;16.60;8.70;;;;;;;;;;6134216;23;20023;-87
2021/12/03 01:46:41;;;;;;;18.08;9.35;;;;;;;;;;6132840;23;20044;-88
2021/12/03 01:49:10;;;;;;;20.45;10.18;;;;;;;;;;6157753;23;20009;-88
2021/12/03 01:51:36;;;;;;;15.43;9.80;;;;;;;;;;6157462;23;20088;-88
2021/12/03 01:54:02;;;;;;;16.48;9.65;;;;;;;;;;6133719;23;20044;-88
2021/12/03 01:56:28;;;;;;;20.65;11.43;;;;;;;;;;6131607;23;20434;-88
2021/12/03 01:58:54;;;;;;;22.08;10.93;;;;;;;;;;6133117;23;20013;-87
2021/12/03 02:01:23;;;;;;;18.92;11.35;;;;;;;;;;6143514;23;20020;-88
2021/12/03 02:03:52;;;;;;;21.48;10.82;;;;;;;;;;6142805;23;20398;-88
2021/12/03 02:06:19;;;;;;;19.25;11.48;;;;;;;;;;6139771;23;20020;-88
2021/12/03 02:08:45;;;;;;;21.33;11.57;;;;;;;;;;6139986;23;20020;-88
2021/12/03 02:11:12;;;;;;;21.58;11.23;;;;;;;;;;6142677;23;20048;-88
2021/12/03 02:13:38;;;;;;;22.70;12.63;;;;;;;;;;6144970;23;20016;-89
2021/12/03 02:16:05;;;;;;;21.05;11.25;;;;;;;;;;6144654;23;20024;-88
2021/12/03 02:18:31;;;;;;;25.75;12.13;;;;;;;;;;6144495;23;20044;-88
2021/12/03 02:20:58;;;;;;;25.70;12.27;;;;;;;;;;6136283;23;20024;-87
2021/12/03 02:23:24;;;;;;;26.63;13.45;;;;;;;;;;6163142;23;20023;-87
2021/12/03 02:25:50;;;;;;;26.65;13.20;;;;;;;;;;6132266;23;20016;-87
2021/12/03 02:28:18;;;;;;;22.58;13.35;;;;;;;;;;6155152;23;20013;-87
2021/12/03 02:30:44;;;;;;;23.85;13.32;;;;;;;;;;6155704;23;20015;-87
2021/12/03 02:33:11;;;;;;;25.95;14.25;;;;;;;;;;6132529;23;20009;-86
2021/12/03 02:35:40;;;;;;;26.38;13.70;;;;;;;;;;6133199;23;20359;-86
2021/12/03 02:38:06;;;;;;;28.55;13.93;;;;;;;;;;6133371;23;20557;-86
2021/12/03 02:40:32;;;;;;;30.10;15.27;;;;;;;;;;6132945;23;20020;-86
2021/12/03 02:42:58;;;;;;;27.45;15.23;;;;;;;;;;6133257;23;20013;-86
2021/12/03 02:45:24;;;;;;;30.15;15.32;;;;;;;;;;6131926;23;20044;-85
2021/12/03 02:47:50;;;;;;;28.85;15.65;;;;;;;;;;6131698;23;20020;-86
2021/12/03 02:50:17;;;;;;;30.30;16.85;;;;;;;;;;6156401;23;20021;-85
2021/12/03 02:52:44;;;;;;;34.45;15.80;;;;;;;;;;6155658;23;20013;-85
2021/12/03 02:55:10;;;;;;;33.05;18.45;;;;;;;;;;6131171;23;20666;-85
2021/12/03 02:57:36;;;;;;;36.05;19.23;;;;;;;;;;6131381;23;20107;-86
2021/12/03 03:00:03;;;;;;;35.60;19.17;;;;;;;;;;6155294;23;20094;-85
2021/12/03 03:02:29;;;;;;;34.17;20.45;;;;;;;;;;6130361;23;20430;-85
2021/12/03 03:04:55;;;;;;;42.85;22.48;;;;;;;;;;6156011;23;20056;-86
2021/12/03 03:07:21;;;;;;;46.58;25.02;;;;;;;;;;6155133;23;20020;-85
2021/12/03 03:09:47;;;;;;;43.95;25.55;;;;;;;;;;6130670;23;20088;-85
2021/12/03 03:12:14;;;;;;;55.85;27.17;;;;;;;;;;6154965;23;20059;-85
2021/12/03 03:14:48;;;;;;;50.63;29.58;;;;;;;;;;6130374;23;20091;-85
2021/12/03 03:17:14;;;;;;;52.97;31.37;;;;;;;;;;6154656;23;20454;-85
2021/12/03 03:19:40;;;;;;;53.78;32.13;;;;;;;;;;6130712;23;20381;-85
2021/12/03 03:22:06;;;;;;;55.10;33.65;;;;;;;;;;6130786;23;20358;-86
2021/12/03 03:24:32;;;;;;;61.03;37.42;;;;;;;;;;6130238;23;20020;-86
2021/12/03 03:26:58;;;;;;;62.38;39.05;;;;;;;;;;6129884;23;20333;-85
2021/12/03 03:29:24;;;;;;;67.60;40.17;;;;;;;;;;6130367;23;20481;-85
2021/12/03 03:31:52;;;;;;;68.03;40.65;;;;;;;;;;6153691;23;20036;-86
2021/12/03 03:34:18;;;;;;;61.58;40.80;;;;;;;;;;6129341;23;20048;-85
2021/12/03 03:36:45;;;;;;;77.90;42.45;;;;;;;;;;6129049;23;20009;-85
2021/12/03 03:39:13;;;;;;;64.63;42.10;;;;;;;;;;6129896;23;20041;-85
2021/12/03 03:41:40;;;;;;;79.75;44.97;;;;;;;;;;6153624;23;20020;-86
2021/12/03 03:44:07;;;;;;;70.38;44.65;;;;;;;;;;6129781;23;20079;-86
2021/12/03 03:46:33;;;;;;;71.90;45.55;;;;;;;;;;6129335;23;20013;-85
2021/12/03 03:48:59;;;;;;;65.90;44.25;;;;;;;;;;6129523;23;20024;-85
2021/12/03 03:51:25;;;;;;;64.40;44.60;;;;;;;;;;6129540;23;20012;-85
2021/12/03 03:53:51;;;;;;;66.55;45.60;;;;;;;;;;6129185;23;20339;-85
2021/12/03 03:56:17;;;;;;;68.50;46.15;;;;;;;;;;6153973;23;20013;-84
2021/12/03 03:58:43;;;;;;;59.38;41.45;;;;;;;;;;6153725;23;20013;-84
2021/12/03 04:01:10;;;;;;;60.75;42.80;;;;;;;;;;6129202;23;20362;-85
2021/12/03 04:03:36;;;;;;;63.95;45.15;;;;;;;;;;6129196;23;20021;-85
2021/12/03 04:06:02;;;;;;;63.03;44.58;;;;;;;;;;6129571;23;20009;-84
2021/12/03 04:08:29;;;;;;;62.08;44.45;;;;;;;;;;6153542;23;20435;-85
2021/12/03 04:10:59;;;;;;;56.88;42.08;;;;;;;;;;6154632;23;20059;-85
2021/12/03 04:13:25;;;;;;;59.40;42.42;;;;;;;;;;6129282;23;20279;-84
2021/12/03 04:15:51;;;;;;;64.47;44.22;;;;;;;;;;6153737;23;20024;-85
2021/12/03 04:18:17;;;;;;;60.97;42.90;;;;;;;;;;6128850;23;20013;-85
2021/12/03 04:20:44;;;;;;;55.65;40.78;;;;;;;;;;6129086;23;20013;-84
2021/12/03 04:23:12;;;;;;;56.63;40.90;;;;;;;;;;6152916;23;20339;-85
2021/12/03 04:25:38;;;;;;;56.72;40.47;;;;;;;;;;6154037;23;20032;-85
2021/12/03 04:28:04;;;;;;;54.55;41.22;;;;;;;;;;6128496;23;20340;-85
2021/12/03 04:30:30;;;;;;;48.30;36.50;;;;;;;;;;6128876;23;20013;-85
2021/12/03 04:32:57;;;;;;;53.70;41.00;;;;;;;;;;6129033;23;20151;-85
2021/12/03 04:35:24;;;;;;;55.63;40.40;;;;;;;;;;6153625;23;20013;-85
2021/12/03 04:37:50;;;;;;;56.92;41.22;;;;;;;;;;6152837;23;20064;-85
2021/12/03 04:40:16;;;;;;;52.30;40.60;;;;;;;;;;6129508;23;20398;-85
2021/12/03 04:42:42;;;;;;;49.17;37.78;;;;;;;;;;6153236;23;20353;-86
2021/12/03 04:45:09;;;;;;;49.15;36.88;;;;;;;;;;6129077;23;20048;-85
2021/12/03 04:47:36;;;;;;;52.20;37.70;;;;;;;;;;6129000;23;20375;-85
2021/12/03 04:50:03;;;;;;;51.53;38.92;;;;;;;;;;6129230;23;20055;-85
2021/12/03 04:52:29;;;;;;;50.42;39.38;;;;;;;;;;6128546;23;20140;-85
2021/12/03 04:54:55;;;;;;;52.15;37.33;;;;;;;;;;6128699;23;20043;-85
2021/12/03 04:57:21;;;;;;;50.50;37.03;;;;;;;;;;6128582;23;20013;-85
2021/12/03 04:59:47;;;;;;;51.17;38.05;;;;;;;;;;6129152;23;20085;-85
2021/12/03 05:02:13;;;;;;;49.60;37.53;;;;;;;;;;6128357;23;20013;-85
2021/12/03 05:04:40;;;;;;;49.67;37.13;;;;;;;;;;6129742;23;20020;-86
2021/12/03 05:09:36;;;;;;;50.38;37.28;;;;;;;;;;6155365;23;20017;-85
2021/12/03 05:12:03;;;;;;;52.60;40.30;;;;;;;;;;6154861;23;20017;-85
2021/12/03 05:14:29;;;;;;;49.05;35.95;;;;;;;;;;6130762;23;20355;-86
2021/12/03 05:16:55;;;;;;;49.95;37.00;;;;;;;;;;6130534;23;20021;-86
2021/12/03 05:19:21;;;;;;;48.63;36.88;;;;;;;;;;6130715;23;20024;-85
2021/12/03 05:21:47;;;;;;;53.50;37.10;;;;;;;;;;6129662;23;20107;-85
2021/12/03 05:24:14;;;;;;;53.90;36.95;;;;;;;;;;6130695;23;20009;-85
2021/12/03 05:26:40;;;;;;;50.40;37.00;;;;;;;;;;6130922;23;20342;-85
2021/12/03 05:29:07;;;;;;;54.92;37.25;;;;;;;;;;6130777;23;20013;-86
2021/12/03 05:31:34;;;;;;;49.95;37.30;;;;;;;;;;6130092;23;20017;-85
2021/12/03 05:34:00;;;;;;;48.50;36.05;;;;;;;;;;6154553;23;20369;-85
2021/12/03 05:36:26;;;;;;;48.47;35.92;;;;;;;;;;6130426;23;20021;-86
2021/12/03 05:38:52;;;;;;;48.50;34.50;;;;;;;;;;6154884;23;20092;-85
2021/12/03 05:41:19;;;;;;;49.70;35.83;;;;;;;;;;6130310;23;20017;-85
2021/12/03 05:43:45;;;;;;;52.35;35.03;;;;;;;;;;6154768;23;20024;-85
2021/12/03 05:46:11;;;;;;;49.08;35.20;;;;;;;;;;6155035;23;20021;-85
2021/12/03 05:48:37;;;;;;;51.10;35.17;;;;;;;;;;6153878;23;20016;-85
2021/12/03 05:51:03;;;;;;;48.05;32.92;;;;;;;;;;6154832;23;20056;-85
2021/12/03 05:53:29;;;;;;;44.53;33.10;;;;;;;;;;6129654;23;20056;-86
2021/12/03 05:55:55;;;;;;;43.63;30.98;;;;;;;;;;6130259;23;20017;-85
2021/12/03 05:58:21;;;;;;;45.47;32.65;;;;;;;;;;6130368;23;20036;-85
2021/12/03 06:00:48;;;;;;;47.70;34.20;;;;;;;;;;6130470;23;20047;-85
2021/12/03 06:03:14;;;;;;;46.50;33.58;;;;;;;;;;6129340;23;20017;-86
2021/12/03 06:05:40;;;;;;;50.38;33.42;;;;;;;;;;6130164;23;20447;-85
2021/12/03 06:08:06;;;;;;;47.00;34.10;;;;;;;;;;6154318;23;20013;-84
2021/12/03 06:10:33;;;;;;;50.22;32.88;;;;;;;;;;6129879;23;20009;-84
2021/12/03 06:12:59;;;;;;;49.08;34.22;;;;;;;;;;6129366;23;20063;-85
2021/12/03 06:15:25;;;;;;;45.65;32.40;;;;;;;;;;6130095;23;20379;-85
2021/12/03 06:17:52;;;;;;;52.58;34.35;;;;;;;;;;6128926;23;20025;-84
2021/12/03 06:20:18;;;;;;;43.30;30.95;;;;;;;;;;6129650;23;20309;-85
2021/12/03 06:22:44;;;;;;;49.28;32.80;;;;;;;;;;6129187;23;20469;-85
2021/12/03 06:25:11;;;;;;;42.83;32.15;;;;;;;;;;6129624;23;20347;-85
2021/12/03 06:27:38;;;;;;;44.63;32.40;;;;;;;;;;6128945;23;20016;-85
2021/12/03 06:30:06;;;;;;;44.22;31.60;;;;;;;;;;6129922;23;20049;-85
2021/12/03 06:32:33;;;;;;;40.63;31.30;;;;;;;;;;6129303;23;20501;-85
2021/12/03 06:34:59;;;;;;;41.67;30.50;;;;;;;;;;6129448;23;20017;-84
2021/12/03 06:37:25;;;;;;;39.95;28.98;;;;;;;;;;6130402;23;20021;-87
2021/12/03 06:39:51;;;;;;;40.78;29.50;;;;;;;;;;6133093;23;20013;-88
2021/12/03 06:42:17;;;;;;;38.33;28.33;;;;;;;;;;6132397;23;20017;-89
2021/12/03 06:44:43;;;;;;;43.25;29.83;;;;;;;;;;6133128;23;20013;-86
2021/12/03 06:47:09;;;;;;;39.08;27.92;;;;;;;;;;6133565;23;20020;-86
2021/12/03 06:49:35;;;;;;;42.00;27.92;;;;;;;;;;6158285;23;20005;-87
2021/12/03 06:52:05;;;;;;;35.75;26.70;;;;;;;;;;6132762;23;20461;-85
2021/12/03 06:54:33;;;;;;;34.58;26.45;;;;;;;;;;6157691;23;20009;-88
2021/12/03 06:57:00;;;;;;;37.40;26.10;;;;;;;;;;6132888;23;20013;-85
2021/12/03 06:59:26;;;;;;;35.80;24.58;;;;;;;;;;6156959;23;20044;-85
2021/12/03 07:01:53;;;;;;;32.50;24.75;;;;;;;;;;6132312;23;20013;-87
2021/12/03 07:04:20;;;;;;;37.30;25.38;;;;;;;;;;6129237;23;20036;-86
2021/12/03 07:06:46;;;;;;;35.60;24.10;;;;;;;;;;6128865;23;20013;-87
2021/12/03 07:09:12;;;;;;;34.70;24.70;;;;;;;;;;6153733;23;20448;-86
2021/12/03 07:11:38;;;;;;;34.03;24.25;;;;;;;;;;6129708;23;20016;-87
2021/12/03 07:14:05;;;;;;;33.90;24.27;;;;;;;;;;6154745;23;20016;-85
2021/12/03 07:16:31;;;;;;;36.72;24.00;;;;;;;;;;6128987;23;20013;-84
2021/12/03 07:18:57;;;;;;;34.30;24.67;;;;;;;;;;6153031;23;20017;-85
2021/12/03 07:21:24;;;;;;;33.15;22.65;;;;;;;;;;6130793;23;20013;-86
2021/12/03 07:23:51;;;;;;;31.98;22.60;;;;;;;;;;6156460;23;20013;-85
2021/12/03 07:26:17;;;;;;;31.90;21.08;;;;;;;;;;6154628;23;20079;-85
2021/12/03 07:28:43;;;;;;;32.67;22.08;;;;;;;;;;6129986;23;20016;-85
2021/12/03 07:31:11;;;;;;;33.80;21.85;;;;;;;;;;6129354;23;20017;-86
2021/12/03 07:33:37;;;;;;;36.72;23.08;;;;;;;;;;6128831;23;20060;-89
2021/12/03 07:36:05;;;;;;;35.40;21.60;;;;;;;;;;6130180;23;20075;-86
2021/12/03 07:38:31;;;;;;;33.53;20.83;;;;;;;;;;6129834;23;20450;-86
2021/12/03 07:40:57;;;;;;;33.33;21.05;;;;;;;;;;6128632;23;20019;-84
2021/12/03 07:43:23;;;;;;;35.03;20.60;;;;;;;;;;6130005;23;20060;-85
2021/12/03 07:45:49;;;;;;;34.97;21.52;;;;;;;;;;6130342;23;20055;-86
2021/12/03 07:48:15;;;;;;;31.60;20.45;;;;;;;;;;6131934;23;20080;-85
2021/12/03 07:50:42;;;;;;;34.28;21.73;;;;;;;;;;6132208;23;20013;-85
2021/12/03 07:53:08;;;;;;;38.45;22.83;;;;;;;;;;6129883;23;20036;-85
2021/12/03 07:55:35;;;;;;;36.20;21.73;;;;;;;;;;6153723;23;20013;-84
2021/12/03 07:58:03;;;;;;;32.78;21.70;;;;;;;;;;6153524;23;20012;-85
2021/12/03 08:00:29;;;;;;;35.42;21.50;;;;;;;;;;6128352;23;20056;-86
2021/12/03 08:02:55;;;;;;;31.75;19.90;;;;;;;;;;6128702;23;20018;-86
2021/12/03 08:05:21;;;;;;;33.67;21.23;;;;;;;;;;6128524;23;20469;-85
2021/12/03 08:07:49;;;;;;;31.55;20.38;;;;;;;;;;6128832;23;20009;-86
2021/12/03 08:10:16;;;;;;;30.35;19.30;;;;;;;;;;6129996;23;20020;-89
2021/12/03 08:12:43;;;;;;;34.85;20.45;;;;;;;;;;6153608;23;20103;-87
2021/12/03 08:15:09;;;;;;;31.77;18.75;;;;;;;;;;6104788;23;20017;-85
2021/12/03 08:17:35;;;;;;;35.55;20.40;;;;;;;;;;6152464;23;20024;-87
2021/12/03 08:20:01;;;;;;;33.28;20.27;;;;;;;;;;6128336;23;20017;-85
2021/12/03 08:22:28;;;;;;;32.20;20.27;;;;;;;;;;6128347;23;20017;-86
2021/12/03 08:24:54;;;;;;;31.83;19.13;;;;;;;;;;6129590;23;20009;-84
2021/12/03 08:27:20;;;;;;;34.58;20.05;;;;;;;;;;6129167;23;20024;-84
2021/12/03 08:29:46;;;;;;;30.90;19.67;;;;;;;;;;6154076;23;20013;-84
2021/12/03 08:32:13;;;;;;;30.27;19.30;;;;;;;;;;6128249;23;20451;-84
2021/12/03 08:34:39;;;;;;;32.72;20.27;;;;;;;;;;6128916;23;20017;-85
2021/12/03 08:37:07;;;;;;;32.35;19.25;;;;;;;;;;6153207;23;20017;-85
2021/12/03 08:39:33;;;;;;;29.83;18.02;;;;;;;;;;6128067;23;20362;-85
2021/12/03 08:42:00;;;;;;;35.95;19.02;;;;;;;;;;6127949;23;20450;-85
2021/12/03 08:44:26;;;;;;;33.00;18.75;;;;;;;;;;6128857;23;20410;-85
2021/12/03 08:46:58;;;;;;;35.85;19.73;;;;;;;;;;6127511;23;20509;-83
2021/12/03 08:49:30;;;;;;;38.38;20.40;;;;;;;;;;6127955;23;20397;-84
2021/12/03 08:57:23;;;;;;;39.28;21.92;;;;;;;;;;6153291;23;20447;-84
2021/12/03 08:59:51;;;;;;;42.63;22.30;;;;;;;;;;6128180;23;20474;-86
2021/12/03 09:02:18;;;;;;;39.92;20.63;;;;;;;;;;6128090;23;20332;-84
2021/12/03 09:04:44;;;;;;;39.22;21.88;;;;;;;;;;6153043;23;20401;-85
2021/12/03 09:07:10;;;;;;;39.33;22.13;;;;;;;;;;6128362;23;20040;-85
2021/12/03 09:09:36;;;;;;;39.25;22.45;;;;;;;;;;6128957;23;20498;-85
2021/12/03 09:12:02;;;;;;;39.70;21.30;;;;;;;;;;6128518;23;20067;-87
2021/12/03 09:14:37;;;;;;;41.65;23.02;;;;;;;;;;6128419;23;20049;-86
2021/12/03 09:17:57;;;;;;;40.35;24.65;;;;;;;;;;6128958;23;20017;-89
2021/12/03 09:25:01;;;;;;;47.70;27.52;;;;;;;;;;6153322;23;20013;-91
2021/12/03 09:27:28;;;;;;;47.67;28.30;;;;;;;;;;6128779;23;20437;-86
2021/12/03 09:29:55;;;;;;;48.75;28.88;;;;;;;;;;6152940;23;20067;-86
2021/12/03 09:32:25;;;;;;;49.38;29.55;;;;;;;;;;6128568;23;20013;-86
2021/12/03 09:34:51;;;;;;;47.75;29.05;;;;;;;;;;6128710;23;20085;-86
2021/12/03 09:37:17;;;;;;;52.45;31.75;;;;;;;;;;6128704;23;20024;-86
2021/12/03 09:39:45;;;;;;;50.90;30.55;;;;;;;;;;6128785;23;20017;-90
2021/12/03 09:42:12;;;;;;;50.08;31.38;;;;;;;;;;6152653;23;20092;-87
2021/12/03 09:44:39;;;;;;;56.35;31.08;;;;;;;;;;6128887;23;20013;-87
2021/12/03 09:47:06;;;;;;;49.17;30.40;;;;;;;;;;6153383;23;20220;-87
2021/12/03 09:49:37;;;;;;;44.92;30.15;;;;;;;;;;6152779;23;20087;-84
2021/12/03 09:52:14;;;;;;;48.17;29.40;;;;;;;;;;6129397;23;20013;-85
2021/12/03 09:54:43;;;;;;;51.88;32.70;;;;;;;;;;6130946;23;20516;-84
2021/12/03 09:57:15;;;;;;;49.53;29.05;;;;;;;;;;6131428;23;20020;-86
2021/12/03 10:10:29;;;;;;;44.28;29.23;;;;;;;;;;6156352;23;20017;-84
2021/12/03 10:13:06;;;;;;;49.13;27.92;;;;;;;;;;6155411;23;20017;-84
2021/12/03 10:15:37;;;;;;;40.85;24.70;;;;;;;;;;6155212;23;20021;-83
2021/12/03 10:41:46;;;;;;;38.60;21.75;;;;;;;;;;6156448;23;20099;-88
2021/12/03 10:44:28;;;;;;;30.88;20.38;;;;;;;;;;6130088;23;20017;-85
2021/12/03 10:47:14;;;;;;;34.13;20.73;;;;;;;;;;6130453;23;20086;-88
2021/12/03 10:50:02;;;;;;;32.03;19.50;;;;;;;;;;6155771;23;20473;-86
2021/12/03 10:52:40;;;;;;;37.70;20.30;;;;;;;;;;6154580;23;20158;-86
2021/12/03 10:55:38;;;;;;;33.28;20.30;;;;;;;;;;6130593;23;20017;-88
2021/12/03 11:01:47;;;;;;;36.58;18.02;;;;;;;;;;6154232;23;20458;-87
2021/12/03 11:04:46;;;;;;;30.23;16.92;;;;;;;;;;6153812;23;20021;-87
2021/12/03 11:16:41;;;;;;;28.20;14.32;;;;;;;;;;6155647;23;20020;-88
2021/12/03 11:27:48;;;;;;;17.77;10.20;;;;;;;;;;6156549;23;20021;-89
2021/12/03 11:58:26;;;;;;;21.80;9.55;;;;;;;;;;6154529;23;20358;-87
2021/12/03 12:02:35;;;;;;;21.10;9.07;;;;;;;;;;6157420;23;20013;-89
2021/12/03 13:01:06;;;;;;;17.35;10.50;;;;;;;;;;6154514;23;20517;-91
2021/12/03 13:08:55;;;;;;;20.27;11.40;;;;;;;;;;6156630;23;20103;-90
2021/12/03 13:25:56;;;;;;;20.88;12.30;;;;;;;;;;6155348;23;20053;-90
2021/12/03 13:28:25;;;;;;;19.02;12.00;;;;;;;;;;6147445;23;20017;-91
2021/12/03 14:03:54;;;;;;;22.77;12.13;;;;;;;;;;6156952;23;20021;-88
2021/12/03 14:19:05;;;;;;;19.00;11.00;;;;;;;;;;6158914;23;20017;-89
2021/12/03 14:55:15;;;;;;;17.85;10.30;;;;;;;;;;6158588;23;20558;-88
2021/12/03 14:57:49;;;;;;;19.23;11.83;;;;;;;;;;6159165;23;20021;-89
2021/12/03 15:08:21;;;;;;;18.38;12.73;;;;;;;;;;6159889;23;20231;-91
2021/12/03 15:21:54;;;;;;;17.83;12.70;;;;;;;;;;6159023;23;20052;-91
2021/12/03 15:27:33;;;;;;;20.92;12.57;;;;;;;;;;6159322;23;20458;-88
2021/12/03 15:30:24;;;;;;;16.92;12.20;;;;;;;;;;6133394;23;20017;-86
2021/12/03 16:10:15;;;;;;;18.90;14.40;;;;;;;;;;6157371;23;20013;-86
2021/12/03 16:20:56;;;;;;;20.55;15.50;;;;;;;;;;6157364;23;20062;-86
2021/12/03 16:52:31;;;;;;;31.13;20.58;;;;;;;;;;6156854;23;20017;-89
2021/12/03 16:54:58;;;;;;;31.42;21.25;;;;;;;;;;6132606;23;20096;-87
2021/12/03 16:57:30;;;;;;;29.23;21.83;;;;;;;;;;6133190;23;20351;-89
2021/12/03 16:59:58;;;;;;;29.23;20.90;;;;;;;;;;6160405;23;20045;-90
2021/12/03 17:02:34;;;;;;;30.27;21.80;;;;;;;;;;6136044;23;20466;-89
2021/12/03 17:21:43;;;;;;;32.08;23.45;;;;;;;;;;6158743;23;20024;-87
2021/12/03 17:29:33;;;;;;;33.38;22.48;;;;;;;;;;6159933;23;20346;-86
2021/12/03 17:53:24;;;;;;;37.65;24.73;;;;;;;;;;6158508;23;20021;-83
2021/12/03 17:56:08;;;;;;;37.03;24.55;;;;;;;;;;6157685;23;20021;-94
2021/12/03 18:04:03;;;;;;;36.25;23.95;;;;;;;;;;6159912;23;20021;-89
2021/12/03 18:12:46;;;;;;;37.80;24.83;;;;;;;;;;6039687;23;20082;-86
2021/12/03 18:51:05;;;;;;;41.88;29.38;;;;;;;;;;6156508;23;20092;-90
2021/12/03 18:56:52;;;;;;;44.50;27.83;;;;;;;;;;6158409;23;20021;-92
2021/12/03 18:59:00;;;;;;;46.95;28.80;;;;;;;;;;6145373;23;20017;-91
2021/12/03 19:01:27;;;;;;;47.22;30.17;;;;;;;;;;6158521;23;20028;-93
2021/12/03 19:06:29;;;;;;;43.85;28.65;;;;;;;;;;6157562;23;20056;-88
2021/12/03 19:09:08;;;;;;;46.97;29.52;;;;;;;;;;6132469;23;20048;-85
2021/12/03 19:11:38;;;;;;;44.63;28.73;;;;;;;;;;6132311;23;20020;-87
2021/12/03 19:14:07;;;;;;;48.97;31.13;;;;;;;;;;6131628;23;20055;-86
2021/12/03 19:16:33;;;;;;;46.83;28.98;;;;;;;;;;6131839;23;20017;-87
2021/12/03 19:19:00;;;;;;;50.45;31.60;;;;;;;;;;6156724;23;20406;-90
2021/12/03 19:21:27;;;;;;;49.92;31.70;;;;;;;;;;6158397;23;20324;-85
2021/12/03 19:23:59;;;;;;;48.83;30.38;;;;;;;;;;6130878;23;20013;-86
2021/12/03 19:26:25;;;;;;;47.00;29.88;;;;;;;;;;6132669;23;20016;-87
2021/12/03 19:28:52;;;;;;;51.70;30.65;;;;;;;;;;6131550;23;20013;-86
2021/12/03 19:31:20;;;;;;;51.55;31.17;;;;;;;;;;6132193;23;20395;-88
2021/12/03 19:33:46;;;;;;;49.65;30.08;;;;;;;;;;6155882;23;20410;-87
2021/12/03 19:36:19;;;;;;;54.30;32.70;;;;;;;;;;6130500;23;20017;-86
2021/12/03 19:38:45;;;;;;;51.28;31.52;;;;;;;;;;6131165;23;20017;-85
2021/12/03 19:41:16;;;;;;;54.05;32.65;;;;;;;;;;6130931;23;20109;-85
2021/12/03 19:43:55;;;;;;;54.50;32.08;;;;;;;;;;6154381;23;20017;-85
2021/12/03 19:46:28;;;;;;;49.97;31.95;;;;;;;;;;6131252;23;20410;-87
2021/12/03 19:49:06;;;;;;;53.45;33.58;;;;;;;;;;6130482;23;20286;-86
2021/12/03 19:51:35;;;;;;;56.00;34.00;;;;;;;;;;6155187;23;20063;-85
2021/12/03 19:54:03;;;;;;;56.97;33.53;;;;;;;;;;6131438;23;20013;-86
2021/12/03 19:56:31;;;;;;;58.03;34.38;;;;;;;;;;6155315;23;20013;-89
2021/12/03 19:58:58;;;;;;;56.35;33.45;;;;;;;;;;6155039;23;20407;-85
2021/12/03 20:01:25;;;;;;;65.55;36.45;;;;;;;;;;6130933;23;20052;-86
2021/12/03 20:03:53;;;;;;;63.88;36.97;;;;;;;;;;6154141;23;20092;-86
2021/12/03 20:06:20;;;;;;;62.35;37.33;;;;;;;;;;6129696;23;20009;-86
2021/12/03 20:08:49;;;;;;;60.47;34.28;;;;;;;;;;6130255;23;20016;-86
2021/12/03 20:11:16;;;;;;;55.33;33.30;;;;;;;;;;6128518;23;20017;-88
2021/12/03 20:13:48;;;;;;;56.92;34.30;;;;;;;;;;6130798;23;20013;-87
2021/12/03 20:16:29;;;;;;;59.35;35.60;;;;;;;;;;6129827;23;20351;-87
2021/12/03 20:19:03;;;;;;;54.42;34.00;;;;;;;;;;6129021;23;20032;-90
2021/12/03 20:21:30;;;;;;;59.67;34.78;;;;;;;;;;6128845;23;20017;-89
2021/12/03 20:29:20;;;;;;;54.72;32.70;;;;;;;;;;6152552;23;20227;-87
2021/12/03 20:32:09;;;;;;;58.38;33.65;;;;;;;;;;6127723;23;20017;-87
2021/12/03 20:34:50;;;;;;;56.30;31.50;;;;;;;;;;6151314;23;20016;-86
2021/12/03 20:37:23;;;;;;;55.60;31.10;;;;;;;;;;6126995;23;20366;-86
2021/12/03 20:39:51;;;;;;;54.08;32.50;;;;;;;;;;6128827;23;20055;-89
2021/12/03 20:42:25;;;;;;;51.90;31.95;;;;;;;;;;6149302;23;20040;-86
2021/12/03 20:45:12;;;;;;;52.80;30.80;;;;;;;;;;6127228;23;20041;-89
2021/12/03 21:08:39;;;;;;;48.35;29.23;;;;;;;;;;6154477;23;20451;-86
2021/12/03 21:11:31;;;;;;;48.92;29.77;;;;;;;;;;6155549;23;20049;-86
2021/12/03 21:14:02;;;;;;;48.50;29.65;;;;;;;;;;6131332;23;20088;-87
2021/12/03 21:16:51;;;;;;;49.22;28.23;;;;;;;;;;6130918;23;20043;-86
2021/12/03 21:21:54;;;;;;;46.33;27.48;;;;;;;;;;6156918;23;20014;-88
2021/12/03 21:24:20;;;;;;;47.53;28.15;;;;;;;;;;6131062;23;20409;-85
2021/12/03 21:26:48;;;;;;;44.78;27.02;;;;;;;;;;6129592;23;20013;-86
2021/12/03 21:32:14;;;;;;;43.85;25.83;;;;;;;;;;6152463;23;20394;-85
2021/12/03 21:40:17;;;;;;;44.97;27.67;;;;;;;;;;6156766;23;20013;-87
2021/12/03 21:42:43;;;;;;;45.28;26.98;;;;;;;;;;6131991;23;20023;-85
2021/12/03 21:45:09;;;;;;;44.30;26.92;;;;;;;;;;6130386;23;20020;-87
2021/12/03 21:47:35;;;;;;;48.20;27.77;;;;;;;;;;6156874;23;20332;-86
2021/12/03 21:50:01;;;;;;;45.10;27.10;;;;;;;;;;6133893;23;20013;-86
2021/12/03 21:52:28;;;;;;;46.78;28.13;;;;;;;;;;6131252;23;20010;-85
2021/12/03 21:54:54;;;;;;;48.85;28.02;;;;;;;;;;6134036;23;20013;-86
2021/12/03 21:57:25;;;;;;;44.95;26.25;;;;;;;;;;6134213;23;20009;-85
2021/12/03 21:59:51;;;;;;;47.42;27.67;;;;;;;;;;6158441;23;20350;-85
2021/12/03 22:02:17;;;;;;;47.22;28.33;;;;;;;;;;6133525;23;20431;-86
2021/12/03 22:04:43;;;;;;;45.28;28.90;;;;;;;;;;6134186;23;20076;-85
2021/12/03 22:07:11;;;;;;;44.97;27.08;;;;;;;;;;6133962;23;20060;-86
2021/12/03 22:09:38;;;;;;;44.15;26.65;;;;;;;;;;6133857;23;20067;-87
2021/12/03 22:12:04;;;;;;;46.55;27.90;;;;;;;;;;6133297;23;20013;-85
2021/12/03 22:14:30;;;;;;;48.90;28.73;;;;;;;;;;6133465;23;20096;-85
2021/12/03 22:16:56;;;;;;;47.25;29.58;;;;;;;;;;6131868;23;20463;-85
2021/12/03 22:19:22;;;;;;;50.38;28.63;;;;;;;;;;6131757;23;20019;-85
2021/12/03 22:21:48;;;;;;;47.85;26.48;;;;;;;;;;6131329;23;20017;-85
2021/12/03 22:24:14;;;;;;;45.80;26.48;;;;;;;;;;6130693;23;20072;-86
2021/12/03 22:26:40;;;;;;;48.90;28.33;;;;;;;;;;6131472;23;20017;-85
2021/12/03 22:29:06;;;;;;;45.05;28.48;;;;;;;;;;6131207;23;20021;-86